createdAt,value
2022-10-10T00:01:35.949Z,2.80
2022-10-10T00:04:05.271Z,2.97
2022-10-10T00:06:33.555Z,2.50
2022-10-10T00:09:02.472Z,2.97
2022-10-10T00:11:30.046Z,3.10
2022-10-10T00:13:58.289Z,2.53
2022-10-10T00:16:25.910Z,2.47
2022-10-10T00:18:53.228Z,2.60
2022-10-10T00:21:20.266Z,2.30
2022-10-10T00:23:47.222Z,2.93
2022-10-10T00:26:19.025Z,2.60
2022-10-10T00:28:47.479Z,2.57
2022-10-10T00:31:14.876Z,2.90
2022-10-10T00:33:41.911Z,2.60
2022-10-10T00:36:09.019Z,2.63
2022-10-10T00:38:36.189Z,2.50
2022-10-10T00:41:04.085Z,2.60
2022-10-10T00:43:35.349Z,2.30
2022-10-10T00:46:02.379Z,2.70
2022-10-10T00:48:41.150Z,2.40
2022-10-10T00:51:16.555Z,2.70
2022-10-10T00:53:50.535Z,2.93
2022-10-10T00:56:27.910Z,2.43
2022-10-10T00:59:00.421Z,2.83
2022-10-10T01:01:27.923Z,2.83
2022-10-10T01:04:00.293Z,2.83
2022-10-10T01:06:28.396Z,2.90
2022-10-10T01:08:56.980Z,2.27
2022-10-10T01:11:49.648Z,2.67
2022-10-10T01:15:13.408Z,2.30
2022-10-10T01:18:03.496Z,2.43
2022-10-10T01:20:50.728Z,2.67
2022-10-10T01:23:23.046Z,2.70
2022-10-10T01:26:13.987Z,2.37
2022-10-10T01:29:01.719Z,2.50
2022-10-10T01:31:34.412Z,2.63
2022-10-10T01:34:09.776Z,2.43
2022-10-10T01:36:56.857Z,2.70
2022-10-10T01:39:40.364Z,2.90
2022-10-10T01:42:20.408Z,3.07
2022-10-10T01:44:48.051Z,2.60
2022-10-10T01:47:15.338Z,2.90
2022-10-10T01:49:46.560Z,2.77
2022-10-10T01:52:44.446Z,2.80
2022-10-10T01:55:36.172Z,2.80
2022-10-10T01:58:10.758Z,2.47
2022-10-10T02:01:00.989Z,2.67
2022-10-10T02:03:36.115Z,2.50
2022-10-10T02:06:16.634Z,2.37
2022-10-10T02:08:58.564Z,2.57
2022-10-10T02:11:28.370Z,2.50
2022-10-10T02:14:15.859Z,2.50
2022-10-10T02:16:49.728Z,2.60
2022-10-10T02:19:21.619Z,2.70
2022-10-10T02:21:52.375Z,2.23
2022-10-10T02:24:24.341Z,2.47
2022-10-10T02:27:05.925Z,2.13
2022-10-10T02:29:38.912Z,2.30
2022-10-10T02:32:50.025Z,2.27
2022-10-10T02:35:25.292Z,2.30
2022-10-10T02:37:54.686Z,2.33
2022-10-10T02:40:28.239Z,2.57
2022-10-10T02:42:59.682Z,2.40
2022-10-10T02:45:30.476Z,2.63
2022-10-10T02:47:57.745Z,2.20
2022-10-10T02:50:24.787Z,2.40
2022-10-10T02:52:52.175Z,2.23
2022-10-10T02:55:19.553Z,2.43
2022-10-10T02:57:46.637Z,2.33
2022-10-10T03:00:14.610Z,2.80
2022-10-10T03:02:42.209Z,2.73
2022-10-10T03:05:10.196Z,2.50
2022-10-10T03:07:37.191Z,2.37
2022-10-10T03:10:07.365Z,2.70
2022-10-10T03:12:37.609Z,2.40
2022-10-10T03:15:10.655Z,2.60
2022-10-10T03:17:39.176Z,2.67
2022-10-10T03:20:07.378Z,2.37
2022-10-10T03:22:34.458Z,2.40
2022-10-10T03:25:01.439Z,2.33
2022-10-10T03:27:28.438Z,2.87
2022-10-10T03:29:55.365Z,2.50
2022-10-10T03:32:22.342Z,2.57
2022-10-10T03:34:49.336Z,2.43
2022-10-10T03:37:16.372Z,2.87
2022-10-10T03:39:43.622Z,2.20
2022-10-10T03:42:10.893Z,2.50
2022-10-10T03:44:37.960Z,2.50
2022-10-10T03:47:05.115Z,2.83
2022-10-10T03:49:32.072Z,2.80
2022-10-10T03:52:00.559Z,2.50
2022-10-10T03:54:27.653Z,2.30
2022-10-10T03:56:54.617Z,2.30
2022-10-10T03:59:21.574Z,2.53
2022-10-10T04:01:48.632Z,2.83
2022-10-10T04:04:15.594Z,2.23
2022-10-10T04:06:42.634Z,2.47
2022-10-10T04:09:09.773Z,2.53
2022-10-10T04:11:38.566Z,2.80
2022-10-10T04:14:05.599Z,2.23
2022-10-10T04:16:32.743Z,2.57
2022-10-10T04:19:00.319Z,2.60
2022-10-10T04:21:27.591Z,2.50
2022-10-10T04:23:54.524Z,2.80
2022-10-10T04:26:21.650Z,2.80
2022-10-10T04:28:48.794Z,2.80
2022-10-10T04:31:15.821Z,2.83
2022-10-10T04:33:42.706Z,2.80
2022-10-10T04:36:09.750Z,2.80
2022-10-10T04:38:36.701Z,2.43
2022-10-10T04:41:03.855Z,2.30
2022-10-10T04:43:30.757Z,2.73
2022-10-10T04:45:58.883Z,2.67
2022-10-10T04:48:26.040Z,2.50
2022-10-10T04:50:59.331Z,2.60
2022-10-10T04:53:27.376Z,2.57
2022-10-10T04:55:54.486Z,2.77
2022-10-10T04:58:21.616Z,2.30
2022-10-10T05:00:55.573Z,2.80
2022-10-10T05:03:24.225Z,2.60
2022-10-10T05:05:52.188Z,2.70
2022-10-10T05:08:20.222Z,2.70
2022-10-10T05:10:47.939Z,2.67
2022-10-10T05:13:16.938Z,2.37
2022-10-10T05:15:44.814Z,2.73
2022-10-10T05:18:11.873Z,2.80
2022-10-10T05:20:38.962Z,2.60
2022-10-10T05:23:05.912Z,2.90
2022-10-10T05:25:33.128Z,2.60
2022-10-10T05:28:00.199Z,2.73
2022-10-10T05:30:27.206Z,2.60
2022-10-10T05:32:54.370Z,2.63
2022-10-10T05:35:21.340Z,2.80
2022-10-10T05:37:48.347Z,2.67
2022-10-10T05:40:15.329Z,2.47
2022-10-10T05:42:42.386Z,2.63
2022-10-10T05:45:10.179Z,2.70
2022-10-10T05:47:37.398Z,2.50
2022-10-10T05:50:05.374Z,2.60
2022-10-10T05:52:32.396Z,2.57
2022-10-10T05:54:59.463Z,2.53
2022-10-10T05:57:26.422Z,2.60
2022-10-10T05:59:53.420Z,2.80
2022-10-10T06:02:20.435Z,2.70
2022-10-10T06:04:47.418Z,3.00
2022-10-10T06:07:14.307Z,3.10
2022-10-10T06:09:41.250Z,2.63
2022-10-10T06:12:08.444Z,2.57
2022-10-10T06:14:35.480Z,3.30
2022-10-10T06:17:02.381Z,2.47
2022-10-10T06:19:29.331Z,2.90
2022-10-10T06:21:56.407Z,2.80
2022-10-10T06:24:23.371Z,2.70
2022-10-10T06:26:50.382Z,2.67
2022-10-10T06:29:17.331Z,2.93
2022-10-10T06:31:44.318Z,2.77
2022-10-10T06:34:11.323Z,2.60
2022-10-10T06:36:38.938Z,2.57
2022-10-10T06:39:06.059Z,2.50
2022-10-10T06:41:33.011Z,2.77
2022-10-10T06:44:00.228Z,2.70
2022-10-10T06:46:27.402Z,2.77
2022-10-10T06:48:54.413Z,2.90
2022-10-10T06:51:21.550Z,2.57
2022-10-10T06:53:48.756Z,2.53
2022-10-10T06:56:26.308Z,2.57
2022-10-10T06:58:54.440Z,2.77
2022-10-10T07:01:24.222Z,2.60
2022-10-10T07:03:51.625Z,3.10
2022-10-10T07:06:18.721Z,2.50
2022-10-10T07:08:46.056Z,2.47
2022-10-10T07:11:13.425Z,2.50
2022-10-10T07:13:40.503Z,2.87
2022-10-10T07:16:08.351Z,2.50
2022-10-10T07:18:36.830Z,2.90
2022-10-10T07:21:05.372Z,2.40
2022-10-10T07:23:33.014Z,2.77
2022-10-10T07:26:04.116Z,2.33
2022-10-10T07:28:32.154Z,2.70
2022-10-10T07:31:03.389Z,2.50
2022-10-10T07:33:40.175Z,2.90
2022-10-10T07:36:08.302Z,2.80
2022-10-10T07:38:37.490Z,3.00
2022-10-10T07:41:13.911Z,3.00
2022-10-10T07:43:40.957Z,2.50
2022-10-10T07:46:20.001Z,2.77
2022-10-10T07:48:49.349Z,3.17
2022-10-10T07:51:16.721Z,2.47
2022-10-10T07:53:44.406Z,2.60
2022-10-10T07:56:12.497Z,2.40
2022-10-10T07:58:39.964Z,2.93
2022-10-10T08:01:12.689Z,2.43
2022-10-10T08:03:40.577Z,2.50
2022-10-10T08:06:12.217Z,2.60
2022-10-10T08:08:49.954Z,2.70
2022-10-10T08:11:19.235Z,2.70
2022-10-10T08:13:46.282Z,2.40
2022-10-10T08:16:13.515Z,2.87
2022-10-10T08:18:40.512Z,2.53
2022-10-10T08:21:12.006Z,3.00
2022-10-10T08:23:39.495Z,2.70
2022-10-10T08:26:10.465Z,2.53
2022-10-10T08:28:39.686Z,2.67
2022-10-10T08:31:15.574Z,2.80
2022-10-10T08:33:45.998Z,2.50
2022-10-10T08:36:17.648Z,2.33
2022-10-10T08:38:44.865Z,2.70
2022-10-10T08:41:47.412Z,2.20
2022-10-10T08:44:55.369Z,2.70
2022-10-10T08:47:54.568Z,2.60
2022-10-10T08:50:43.171Z,2.80
2022-10-10T08:53:23.654Z,2.67
2022-10-10T08:55:53.347Z,2.90
2022-10-10T08:58:35.174Z,2.83
2022-10-10T09:01:30.989Z,2.73
2022-10-10T09:04:02.096Z,2.77
2022-10-10T09:07:00.783Z,2.50
2022-10-10T09:10:03.289Z,2.60
2022-10-10T09:12:42.613Z,3.10
2022-10-10T09:15:19.397Z,2.30
2022-10-10T09:18:11.328Z,2.80
2022-10-10T09:20:55.242Z,2.77
2022-10-10T09:24:09.515Z,2.40
2022-10-10T09:26:44.293Z,2.37
2022-10-10T09:29:31.283Z,2.60
2022-10-10T09:32:10.072Z,2.53
2022-10-10T09:34:47.763Z,2.50
2022-10-10T09:37:35.641Z,2.50
2022-10-10T09:40:12.471Z,2.33
2022-10-10T09:42:43.507Z,2.40
2022-10-10T09:45:39.059Z,2.27
2022-10-10T09:48:09.431Z,2.27
2022-10-10T09:50:41.725Z,2.03
2022-10-10T09:53:17.113Z,2.33
2022-10-10T09:55:47.931Z,2.00
2022-10-10T09:58:42.098Z,1.97
2022-10-10T10:01:23.798Z,2.10
2022-10-10T10:04:33.442Z,2.33
2022-10-10T10:07:26.287Z,2.10
2022-10-10T10:10:10.828Z,2.30
2022-10-10T10:12:44.320Z,2.30
2022-10-10T10:15:20.352Z,2.30
2022-10-10T10:18:16.382Z,2.33
2022-10-10T10:20:50.291Z,2.60
2022-10-10T10:23:31.750Z,2.37
2022-10-10T10:26:06.527Z,2.40
2022-10-10T10:28:43.576Z,2.80
2022-10-10T10:31:48.250Z,2.40
2022-10-10T10:34:30.565Z,2.60
2022-10-10T10:37:31.663Z,2.57
2022-10-10T10:40:40.942Z,2.40
2022-10-10T10:43:39.469Z,2.50
2022-10-10T10:46:18.375Z,2.40
2022-10-10T10:49:23.201Z,2.50
2022-10-10T10:52:24.539Z,2.50
2022-10-10T10:55:18.850Z,2.57
2022-10-10T10:58:22.349Z,2.30
2022-10-10T11:01:20.188Z,2.37
2022-10-10T11:05:21.341Z,2.60
2022-10-10T11:07:23.960Z,2.70
2022-10-10T11:10:23.217Z,2.53
2022-10-10T11:13:39.199Z,2.60
2022-10-10T11:16:43.953Z,2.80
2022-10-10T11:19:15.221Z,3.00
2022-10-10T11:22:19.863Z,2.60
2022-10-10T11:24:55.816Z,2.83
2022-10-10T11:27:49.316Z,2.53
2022-10-10T11:30:22.765Z,2.77
2022-10-10T11:33:12.939Z,2.90
2022-10-10T11:35:48.433Z,2.97
2022-10-10T11:38:52.351Z,2.50
2022-10-10T11:41:59.016Z,2.60
2022-10-10T11:44:46.760Z,2.40
2022-10-10T11:47:48.843Z,2.80
2022-10-10T11:50:26.412Z,2.50
2022-10-10T11:53:07.729Z,2.53
2022-10-10T11:56:16.796Z,2.67
2022-10-10T11:58:58.694Z,2.90
2022-10-10T12:01:36.891Z,3.07
2022-10-10T12:04:04.699Z,2.60
2022-10-10T12:06:40.266Z,2.73
2022-10-10T12:09:19.101Z,2.73
2022-10-10T12:12:25.002Z,2.73
2022-10-10T12:14:56.560Z,2.63
2022-10-10T12:17:41.283Z,2.70
2022-10-10T12:20:37.041Z,2.97
2022-10-10T12:23:22.023Z,2.83
2022-10-10T12:25:49.173Z,3.00
2022-10-10T12:28:16.872Z,3.00
2022-10-10T12:30:57.727Z,2.83
2022-10-10T12:33:31.589Z,3.07
2022-10-10T12:36:21.648Z,2.80
2022-10-10T12:39:07.862Z,2.67
2022-10-10T12:41:56.432Z,3.00
2022-10-10T12:44:35.651Z,2.90
2022-10-10T12:47:14.182Z,2.77
2022-10-10T12:50:06.403Z,2.90
2022-10-10T12:52:59.021Z,2.80
2022-10-10T12:55:30.477Z,3.20
2022-10-10T12:58:03.510Z,3.30
2022-10-10T13:00:44.770Z,2.90
2022-10-10T13:03:27.143Z,3.03
2022-10-10T13:05:58.519Z,2.83
2022-10-10T13:08:28.834Z,2.73
2022-10-10T13:11:14.824Z,2.90
2022-10-10T13:13:57.338Z,3.03
2022-10-10T13:16:32.880Z,3.33
2022-10-10T13:19:01.549Z,2.70
2022-10-10T13:21:34.169Z,3.23
2022-10-10T13:24:06.218Z,3.13
2022-10-10T13:26:35.182Z,3.07
2022-10-10T13:29:27.457Z,2.77
2022-10-10T13:31:59.517Z,2.83
2022-10-10T13:34:35.868Z,2.83
2022-10-10T13:37:05.352Z,2.77
2022-10-10T13:39:36.571Z,2.90
2022-10-10T13:42:06.118Z,3.10
2022-10-10T13:44:52.996Z,3.00
2022-10-10T13:48:03.081Z,3.20
2022-10-10T13:50:56.345Z,2.70
2022-10-10T13:53:30.052Z,2.80
2022-10-10T13:56:08.960Z,3.10
2022-10-10T13:58:57.040Z,2.80
2022-10-10T14:01:45.022Z,2.90
2022-10-10T14:04:39.748Z,2.57
2022-10-10T14:07:16.375Z,2.70
2022-10-10T14:10:09.439Z,2.87
2022-10-10T14:12:44.137Z,2.70
2022-10-10T14:15:41.769Z,2.90
2022-10-10T14:18:22.812Z,2.53
2022-10-10T14:20:51.785Z,3.33
2022-10-10T14:23:19.098Z,2.83
2022-10-10T14:25:49.229Z,2.90
2022-10-10T14:28:27.869Z,3.10
2022-10-10T14:30:55.664Z,3.20
2022-10-10T14:33:23.252Z,2.87
2022-10-10T14:35:53.902Z,3.23
2022-10-10T14:38:21.000Z,2.97
2022-10-10T14:40:50.405Z,3.17
2022-10-10T14:43:20.495Z,3.30
2022-10-10T14:45:51.693Z,3.10
2022-10-10T14:48:19.968Z,3.03
2022-10-10T14:50:49.461Z,3.10
2022-10-10T14:53:17.300Z,3.17
2022-10-10T14:55:45.842Z,3.20
2022-10-10T14:58:19.287Z,3.10
2022-10-10T15:00:47.322Z,3.30
2022-10-10T15:03:15.492Z,3.83
2022-10-10T15:05:42.885Z,3.40
2022-10-10T15:08:17.941Z,3.53
2022-10-10T15:10:46.609Z,3.40
2022-10-10T15:13:14.672Z,3.17
2022-10-10T15:15:42.451Z,3.70
2022-10-10T15:18:32.005Z,3.53
2022-10-10T15:20:56.652Z,3.97
2022-10-10T15:23:24.022Z,3.27
2022-10-10T15:25:51.046Z,3.40
2022-10-10T15:28:18.040Z,3.30
2022-10-10T15:30:46.313Z,3.43
2022-10-10T15:33:13.397Z,3.20
2022-10-10T15:36:04.348Z,3.30
2022-10-10T15:38:29.172Z,3.57
2022-10-10T15:41:06.321Z,3.63
2022-10-10T15:43:51.889Z,3.43
2022-10-10T15:46:21.002Z,3.23
2022-10-10T15:48:48.615Z,3.70
2022-10-10T15:51:17.062Z,3.80
2022-10-10T15:53:44.266Z,3.67
2022-10-10T15:56:16.423Z,3.70
2022-10-10T15:58:44.084Z,3.40
2022-10-10T16:01:16.445Z,3.93
2022-10-10T16:03:44.792Z,3.90
2022-10-10T16:06:12.562Z,3.77
2022-10-10T16:08:39.780Z,3.80
2022-10-10T16:11:09.436Z,4.10
2022-10-10T16:13:39.246Z,3.83
2022-10-10T16:16:09.413Z,4.03
2022-10-10T16:18:40.498Z,4.10
2022-10-10T16:21:16.396Z,4.20
2022-10-10T16:23:44.025Z,4.03
2022-10-10T16:26:18.517Z,4.00
2022-10-10T16:28:46.738Z,3.80
2022-10-10T16:31:16.912Z,4.47
2022-10-10T16:33:45.205Z,3.97
2022-10-10T16:36:34.675Z,4.10
2022-10-10T16:39:02.224Z,4.00
2022-10-10T16:41:47.437Z,4.50
2022-10-10T16:44:17.071Z,4.43
2022-10-10T16:46:44.766Z,4.20
2022-10-10T16:49:16.300Z,4.60
2022-10-10T16:51:44.251Z,4.30
2022-10-10T16:54:11.469Z,4.10
2022-10-10T16:56:39.194Z,4.33
2022-10-10T16:59:06.542Z,4.80
2022-10-10T17:01:35.048Z,4.73
2022-10-10T17:04:03.631Z,4.53
2022-10-10T17:06:37.269Z,4.43
2022-10-10T17:09:07.305Z,4.57
2022-10-10T17:11:35.039Z,4.10
2022-10-10T17:14:02.224Z,4.23
2022-10-10T17:19:18.091Z,4.77
2022-10-10T17:21:45.092Z,4.57
2022-10-10T17:24:13.247Z,4.53
2022-10-10T17:26:40.227Z,5.10
2022-10-10T17:29:08.063Z,4.53
2022-10-10T17:31:35.077Z,4.90
2022-10-10T17:34:02.443Z,4.77
2022-10-10T17:36:30.128Z,5.10
2022-10-10T17:39:00.965Z,4.53
2022-10-10T17:41:29.220Z,5.60
2022-10-10T17:43:56.668Z,5.20
2022-10-10T17:46:34.692Z,5.03
2022-10-10T17:49:06.320Z,4.87
2022-10-10T17:51:34.837Z,4.77
2022-10-10T17:54:04.253Z,4.73
2022-10-10T17:56:31.691Z,5.63
2022-10-10T17:59:02.371Z,5.67
2022-10-10T18:01:33.171Z,5.40
2022-10-10T18:04:01.968Z,5.30
2022-10-10T18:06:31.650Z,5.73
2022-10-10T18:09:00.274Z,5.60
2022-10-10T18:11:31.063Z,5.53
2022-10-10T18:14:02.100Z,5.80
2022-10-10T18:16:33.846Z,5.83
2022-10-10T18:19:03.774Z,5.20
2022-10-10T18:21:31.266Z,5.83
2022-10-10T18:23:58.280Z,5.87
2022-10-10T18:26:29.649Z,5.63
2022-10-10T18:28:57.190Z,5.83
2022-10-10T18:31:32.995Z,5.23
2022-10-10T18:34:02.491Z,5.40
2022-10-10T18:36:33.731Z,5.20
2022-10-10T18:39:06.504Z,6.00
2022-10-10T18:41:34.445Z,6.00
2022-10-10T18:44:09.139Z,5.97
2022-10-10T18:46:36.972Z,8.67
2022-10-10T18:49:13.537Z,7.87
2022-10-10T18:51:43.140Z,6.87
2022-10-10T18:54:15.432Z,7.07
2022-10-10T18:56:43.991Z,6.73
2022-10-10T18:59:18.086Z,6.13
2022-10-10T19:01:46.513Z,6.20
2022-10-10T19:04:15.324Z,5.57
2022-10-10T19:06:43.640Z,5.83
2022-10-10T19:09:13.363Z,6.40
2022-10-10T19:11:43.083Z,6.03
2022-10-10T19:14:13.281Z,6.50
2022-10-10T19:16:42.277Z,6.80
2022-10-10T19:19:12.614Z,6.23
2022-10-10T19:21:40.495Z,5.67
2022-10-10T19:24:10.859Z,5.80
2022-10-10T19:26:37.935Z,6.20
2022-10-10T19:29:08.356Z,5.93
2022-10-10T19:31:36.880Z,6.73
2022-10-10T19:34:04.956Z,6.70
2022-10-10T19:36:32.105Z,6.50
2022-10-10T19:39:00.514Z,6.00
2022-10-10T19:41:28.681Z,6.67
2022-10-10T19:43:57.978Z,6.77
2022-10-10T19:49:14.798Z,6.60
2022-10-10T19:51:41.831Z,6.87
2022-10-10T19:54:08.786Z,6.57
2022-10-10T19:56:36.701Z,7.73
2022-10-10T19:59:05.435Z,7.40
2022-10-10T20:01:33.352Z,7.70
2022-10-10T20:04:00.400Z,7.50
2022-10-10T20:06:28.200Z,7.70
2022-10-10T20:08:56.065Z,8.13
2022-10-10T20:11:23.555Z,8.10
2022-10-10T20:13:55.431Z,7.57
2022-10-10T20:16:24.206Z,8.67
2022-10-10T20:18:51.595Z,8.70
2022-10-10T20:21:32.765Z,7.93
2022-10-10T20:24:06.044Z,7.30
2022-10-10T20:26:34.781Z,6.57
2022-10-10T20:29:02.746Z,7.40
2022-10-10T20:31:34.789Z,8.40
2022-10-10T20:34:03.931Z,7.57
2022-10-10T20:36:33.760Z,8.23
2022-10-10T20:39:08.576Z,7.20
2022-10-10T20:41:38.467Z,8.10
2022-10-10T20:44:07.809Z,8.00
2022-10-10T20:46:38.040Z,7.90
2022-10-10T20:49:10.122Z,7.90
2022-10-10T20:51:37.175Z,8.00
2022-10-10T20:54:06.709Z,8.30
2022-10-10T20:56:35.739Z,7.87
2022-10-10T20:59:02.792Z,8.57
2022-10-10T21:01:31.188Z,8.50
2022-10-10T21:03:58.747Z,8.20
2022-10-10T21:06:33.182Z,8.97
2022-10-10T21:09:07.987Z,8.10
2022-10-10T21:11:36.355Z,8.90
2022-10-10T21:14:03.701Z,9.53
2022-10-10T21:16:38.799Z,8.53
2022-10-10T21:19:09.178Z,8.67
2022-10-10T21:21:36.973Z,8.73
2022-10-10T21:24:07.584Z,8.20
2022-10-10T21:26:35.147Z,8.63
2022-10-10T21:29:02.497Z,7.77
2022-10-10T21:31:36.659Z,8.30
2022-10-10T21:34:07.512Z,8.77
2022-10-10T21:36:36.704Z,8.47
2022-10-10T21:39:06.893Z,8.50
2022-10-10T21:41:34.653Z,8.80
2022-10-10T21:44:01.595Z,9.00
2022-10-10T21:46:37.330Z,8.87
2022-10-10T21:49:11.707Z,9.27
2022-10-10T21:51:43.209Z,9.40
2022-10-10T21:54:10.584Z,8.63
2022-10-10T21:56:38.271Z,8.40
2022-10-10T21:59:06.257Z,8.17
2022-10-10T22:01:33.523Z,8.80
2022-10-10T22:04:02.278Z,9.20
2022-10-10T22:06:30.145Z,8.87
2022-10-10T22:08:59.672Z,7.63
2022-10-10T22:11:28.606Z,8.23
2022-10-10T22:13:55.892Z,8.90
2022-10-10T22:16:23.312Z,8.10
2022-10-10T22:18:55.730Z,7.80
2022-10-10T22:21:25.662Z,8.50
2022-10-10T22:23:56.348Z,8.00
2022-10-10T22:26:23.375Z,8.20
2022-10-10T22:28:50.481Z,8.60
2022-10-10T22:31:19.030Z,7.53
2022-10-10T22:33:46.458Z,8.00
2022-10-10T22:36:14.168Z,7.90
2022-10-10T22:38:45.521Z,8.20
2022-10-10T22:41:14.199Z,8.30
2022-10-10T22:43:41.232Z,8.47
2022-10-10T22:46:09.168Z,7.90
2022-10-10T22:48:36.678Z,8.23
2022-10-10T22:51:11.979Z,8.33
2022-10-10T22:53:41.387Z,8.03
2022-10-10T22:56:10.541Z,8.27
2022-10-10T22:58:38.047Z,8.50
2022-10-10T23:01:09.694Z,8.87
2022-10-10T23:03:37.149Z,8.67
2022-10-10T23:06:04.928Z,8.03
2022-10-10T23:08:33.447Z,8.50
2022-10-10T23:11:00.517Z,8.27
2022-10-10T23:13:27.814Z,8.83
2022-10-10T23:15:55.178Z,9.03
2022-10-10T23:18:22.476Z,8.00
2022-10-10T23:20:50.467Z,8.80
2022-10-10T23:23:18.488Z,8.23
2022-10-10T23:25:47.652Z,8.80
2022-10-10T23:28:16.223Z,8.47
2022-10-10T23:30:46.958Z,7.67
2022-10-10T23:33:14.145Z,7.77
2022-10-10T23:35:41.618Z,8.30
2022-10-10T23:38:08.674Z,7.70
2022-10-10T23:40:35.617Z,9.13
2022-10-10T23:43:02.655Z,8.30
2022-10-10T23:45:29.578Z,8.30
2022-10-10T23:47:56.628Z,8.47
2022-10-10T23:50:23.841Z,8.30
2022-10-10T23:52:51.112Z,9.33
2022-10-10T23:55:18.206Z,9.17
2022-10-10T23:57:45.147Z,8.50
